createdAt,value
2023-02-05T00:00:23.090Z,3.42
2023-02-05T00:01:26.080Z,3.97
2023-02-05T00:02:28.073Z,5.78
2023-02-05T00:03:32.507Z,2.53
2023-02-05T00:04:34.987Z,4.82
2023-02-05T00:05:37.898Z,2.78
2023-02-05T00:06:39.937Z,3.63
2023-02-05T00:07:42.907Z,5.43
2023-02-05T00:08:44.879Z,3.85
2023-02-05T00:09:47.794Z,3.28
2023-02-05T00:10:52.225Z,4.50
2023-02-05T00:11:55.156Z,5.85
2023-02-05T00:12:57.102Z,3.17
2023-02-05T00:14:00.053Z,2.35
2023-02-05T00:15:02.078Z,4.00
2023-02-05T00:16:09.266Z,3.35
2023-02-05T00:17:11.173Z,2.60
2023-02-05T00:18:14.127Z,2.50
2023-02-05T00:19:17.698Z,2.85
2023-02-05T00:20:20.732Z,2.80
2023-02-05T00:21:23.477Z,2.30
2023-02-05T00:22:26.431Z,3.78
2023-02-05T00:23:28.328Z,4.40
2023-02-05T00:24:31.283Z,3.28
2023-02-05T00:25:33.472Z,3.00
2023-02-05T00:26:36.656Z,3.30
2023-02-05T00:27:38.605Z,4.00
2023-02-05T00:28:41.847Z,3.38
2023-02-05T00:29:43.747Z,2.42
2023-02-05T00:30:46.728Z,4.05
2023-02-05T00:31:49.746Z,3.70
2023-02-05T00:32:52.867Z,2.80
2023-02-05T00:33:54.871Z,2.95
2023-02-05T00:34:59.183Z,2.30
2023-02-05T00:36:01.201Z,2.88
2023-02-05T00:37:04.209Z,3.13
2023-02-05T00:38:06.172Z,2.72
2023-02-05T00:39:11.325Z,3.40
2023-02-05T00:40:13.250Z,3.08
2023-02-05T00:41:16.843Z,2.15
2023-02-05T00:42:18.871Z,2.47
2023-02-05T00:43:21.775Z,4.60
2023-02-05T00:44:23.778Z,3.00
2023-02-05T00:45:32.275Z,3.28
2023-02-05T00:46:34.460Z,2.58
2023-02-05T00:47:37.406Z,4.68
2023-02-05T00:48:40.293Z,3.58
2023-02-05T00:49:43.240Z,4.15
2023-02-05T00:50:48.455Z,3.03
2023-02-05T00:51:51.330Z,3.63
2023-02-05T00:52:53.271Z,3.53
2023-02-05T00:53:56.179Z,4.25
2023-02-05T00:54:58.337Z,2.45
2023-02-05T00:56:01.312Z,2.38
2023-02-05T00:57:03.551Z,2.63
2023-02-05T00:58:06.480Z,4.43
2023-02-05T00:59:08.394Z,3.75
2023-02-05T01:00:12.433Z,3.53
2023-02-05T01:01:14.518Z,4.55
2023-02-05T01:02:17.407Z,4.80
2023-02-05T01:03:20.931Z,3.40
2023-02-05T01:04:23.854Z,6.93
2023-02-05T01:05:25.830Z,6.03
2023-02-05T01:06:30.164Z,4.90
2023-02-05T01:07:32.151Z,3.53
2023-02-05T01:08:35.066Z,4.95
2023-02-05T01:09:37.065Z,5.00
2023-02-05T01:10:43.903Z,3.63
2023-02-05T01:11:45.895Z,6.22
2023-02-05T01:12:50.458Z,3.45
2023-02-05T01:13:52.408Z,4.03
2023-02-05T01:14:55.376Z,4.20
2023-02-05T01:15:57.413Z,3.33
2023-02-05T01:17:00.604Z,3.00
2023-02-05T01:18:02.643Z,5.47
2023-02-05T01:19:05.540Z,6.85
2023-02-05T01:20:08.864Z,4.18
2023-02-05T01:21:11.826Z,5.80
2023-02-05T01:22:16.254Z,5.63
2023-02-05T01:23:19.227Z,3.95
2023-02-05T01:24:21.141Z,4.03
2023-02-05T01:25:24.128Z,3.85
2023-02-05T01:26:26.094Z,5.25
2023-02-05T01:27:29.163Z,3.47
2023-02-05T01:28:31.134Z,4.90
2023-02-05T01:29:34.107Z,5.82
2023-02-05T01:30:36.282Z,5.57
2023-02-05T01:33:06.616Z,2.92
2023-02-05T01:34:08.648Z,5.05
2023-02-05T01:35:11.588Z,3.15
2023-02-05T01:36:13.490Z,4.07
2023-02-05T01:37:18.029Z,3.28
2023-02-05T01:38:20.031Z,2.30
2023-02-05T01:39:22.984Z,3.33
2023-02-05T01:40:25.096Z,3.33
2023-02-05T01:41:28.070Z,2.47
2023-02-05T01:42:31.915Z,3.85
2023-02-05T01:43:34.822Z,2.65
2023-02-05T01:44:37.058Z,2.95
2023-02-05T01:45:52.112Z,3.17
2023-02-05T01:46:56.117Z,4.55
2023-02-05T01:47:59.828Z,1.92
2023-02-05T01:49:03.941Z,3.60
2023-02-05T01:50:06.452Z,3.13
2023-02-05T01:51:12.899Z,2.95
2023-02-05T01:52:17.938Z,4.72
2023-02-05T01:53:24.548Z,3.25
2023-02-05T01:54:30.656Z,4.05
2023-02-05T01:55:34.914Z,2.78
2023-02-05T01:56:40.589Z,2.97
2023-02-05T01:57:42.930Z,2.58
2023-02-05T01:58:52.515Z,2.53
2023-02-05T01:59:54.490Z,3.25
2023-02-05T02:00:57.626Z,3.72
2023-02-05T02:02:00.895Z,2.20
2023-02-05T02:03:04.925Z,4.72
2023-02-05T02:04:08.808Z,2.78
2023-02-05T02:05:14.013Z,2.13
2023-02-05T02:06:16.124Z,3.33
2023-02-05T02:07:23.837Z,3.15
2023-02-05T02:08:26.134Z,2.50
2023-02-05T02:09:29.333Z,3.03
2023-02-05T02:10:32.535Z,3.95
2023-02-05T02:11:39.224Z,4.35
2023-02-05T02:12:42.938Z,5.25
2023-02-05T02:13:48.272Z,3.35
2023-02-05T02:14:54.818Z,3.25
2023-02-05T02:15:58.707Z,4.72
2023-02-05T02:17:02.866Z,12.57
2023-02-05T02:18:24.855Z,2.00
2023-02-05T02:19:33.027Z,2.70
2023-02-05T02:20:41.194Z,2.50
2023-02-05T02:22:04.913Z,2.53
2023-02-05T02:23:14.044Z,3.47
2023-02-05T02:24:41.363Z,2.17
2023-02-05T02:26:11.303Z,2.40
2023-02-05T02:27:34.572Z,2.20
2023-02-05T02:28:42.403Z,3.20
2023-02-05T02:29:51.486Z,2.58
2023-02-05T02:31:03.386Z,3.08
2023-02-05T02:32:16.138Z,3.03
2023-02-05T02:33:21.916Z,3.72
2023-02-05T02:34:31.413Z,3.00
2023-02-05T02:35:42.725Z,2.35
2023-02-05T02:36:52.049Z,2.20
2023-02-05T02:38:02.070Z,2.88
2023-02-05T02:39:09.853Z,6.13
2023-02-05T02:40:20.645Z,4.15
2023-02-05T02:41:28.504Z,3.97
2023-02-05T02:42:36.634Z,3.97
2023-02-05T02:43:45.344Z,2.83
2023-02-05T02:44:53.040Z,3.22
2023-02-05T02:46:03.104Z,3.17
2023-02-05T02:47:13.548Z,5.25
2023-02-05T02:48:19.111Z,3.55
2023-02-05T02:49:28.189Z,4.55
2023-02-05T02:50:35.384Z,4.03
2023-02-05T02:51:39.843Z,9.27
2023-02-05T02:52:46.623Z,5.35
2023-02-05T02:53:54.312Z,3.15
2023-02-05T02:55:01.395Z,3.58
2023-02-05T02:56:06.870Z,2.53
2023-02-05T02:57:11.869Z,2.72
2023-02-05T02:58:19.704Z,4.53
2023-02-05T02:59:25.805Z,5.30
2023-02-05T03:00:30.218Z,2.55
2023-02-05T03:01:34.929Z,3.97
2023-02-05T03:02:39.223Z,3.33
2023-02-05T03:03:44.626Z,4.82
2023-02-05T03:04:53.066Z,2.85
2023-02-05T03:05:57.913Z,2.90
2023-02-05T03:07:06.336Z,2.97
2023-02-05T03:08:11.963Z,4.57
2023-02-05T03:09:22.341Z,4.05
2023-02-05T03:10:30.222Z,3.22
2023-02-05T03:11:33.196Z,3.53
2023-02-05T03:12:35.281Z,3.95
2023-02-05T03:13:39.641Z,4.32
2023-02-05T03:14:41.967Z,2.30
2023-02-05T03:15:46.658Z,7.30
2023-02-05T03:16:48.729Z,4.78
2023-02-05T03:17:53.416Z,3.72
2023-02-05T03:18:56.112Z,5.50
2023-02-05T03:20:02.952Z,5.30
2023-02-05T03:21:09.651Z,3.15
2023-02-05T03:22:12.644Z,3.15
2023-02-05T03:23:14.608Z,3.17
2023-02-05T03:24:18.925Z,2.47
2023-02-05T03:25:22.394Z,2.30
2023-02-05T03:26:27.021Z,5.57
2023-02-05T03:27:29.006Z,3.45
2023-02-05T03:28:32.148Z,5.47
2023-02-05T03:29:39.051Z,4.47
2023-02-05T03:30:53.381Z,4.03
2023-02-05T03:32:03.893Z,3.60
2023-02-05T03:33:17.267Z,2.90
2023-02-05T03:34:29.752Z,3.58
2023-02-05T03:35:40.099Z,2.88
2023-02-05T03:36:52.797Z,3.40
2023-02-05T03:38:08.180Z,4.50
2023-02-05T03:39:24.924Z,2.75
2023-02-05T03:40:34.194Z,3.03
2023-02-05T03:41:57.262Z,2.25
2023-02-05T03:43:07.960Z,2.83
2023-02-05T03:44:19.460Z,2.95
2023-02-05T03:45:39.708Z,2.60
2023-02-05T03:46:47.588Z,2.35
2023-02-05T03:48:05.757Z,2.72
2023-02-05T03:49:18.583Z,3.90
2023-02-05T03:50:27.857Z,2.20
2023-02-05T03:51:37.059Z,2.35
2023-02-05T03:52:45.189Z,2.40
2023-02-05T03:53:54.311Z,2.67
2023-02-05T03:55:04.016Z,2.38
2023-02-05T03:56:09.552Z,3.65
2023-02-05T03:57:19.657Z,4.07
2023-02-05T03:58:27.437Z,3.20
2023-02-05T03:59:31.230Z,3.50
2023-02-05T04:00:35.335Z,3.75
2023-02-05T04:01:38.478Z,3.50
2023-02-05T04:02:40.439Z,2.65
2023-02-05T04:03:43.510Z,3.80
2023-02-05T04:04:45.478Z,3.05
2023-02-05T04:05:48.402Z,2.65
2023-02-05T04:06:52.678Z,3.95
2023-02-05T04:07:55.859Z,4.22
2023-02-05T04:08:57.794Z,4.10
2023-02-05T04:10:00.699Z,4.55
2023-02-05T04:11:02.777Z,2.85
2023-02-05T04:12:06.172Z,3.25
2023-02-05T04:13:08.117Z,2.70
2023-02-05T04:14:11.093Z,2.72
2023-02-05T04:15:13.080Z,2.53
2023-02-05T04:16:17.357Z,3.08
2023-02-05T04:17:19.295Z,3.28
2023-02-05T04:18:22.546Z,3.15
2023-02-05T04:19:24.446Z,5.40
2023-02-05T04:20:29.002Z,6.32
2023-02-05T04:21:30.982Z,2.83
2023-02-05T04:22:34.051Z,2.35
2023-02-05T04:23:35.956Z,3.35
2023-02-05T04:24:38.887Z,2.83
2023-02-05T04:25:41.083Z,4.40
2023-02-05T04:26:43.997Z,2.60
2023-02-05T04:27:45.961Z,3.70
2023-02-05T04:28:48.948Z,2.92
2023-02-05T04:29:50.929Z,2.80
2023-02-05T04:30:53.980Z,3.35
2023-02-05T04:31:57.344Z,2.30
2023-02-05T04:33:00.309Z,4.40
2023-02-05T04:34:02.259Z,3.13
2023-02-05T04:35:05.699Z,3.50
2023-02-05T04:36:08.440Z,3.13
2023-02-05T04:37:11.379Z,2.92
2023-02-05T04:38:13.348Z,3.25
2023-02-05T04:39:16.231Z,2.92
2023-02-05T04:40:18.719Z,3.30
2023-02-05T04:41:21.647Z,2.45
2023-02-05T04:42:23.691Z,4.13
2023-02-05T04:43:26.632Z,2.60
2023-02-05T04:44:29.051Z,2.40
2023-02-05T04:45:33.607Z,2.67
2023-02-05T04:46:35.694Z,2.97
2023-02-05T04:47:40.271Z,2.45
2023-02-05T04:48:42.225Z,2.00
2023-02-05T04:49:45.106Z,3.30
2023-02-05T04:50:47.368Z,2.25
2023-02-05T04:51:50.258Z,2.58
2023-02-05T04:52:52.151Z,3.25
2023-02-05T04:53:55.083Z,1.95
2023-02-05T04:54:57.019Z,2.45
2023-02-05T04:56:07.103Z,2.40
2023-02-05T04:57:09.022Z,2.00
2023-02-05T04:58:11.913Z,2.33
2023-02-05T04:59:14.181Z,3.60
2023-02-05T05:00:17.560Z,2.00
2023-02-05T05:01:21.307Z,3.55
2023-02-05T05:02:24.505Z,2.95
2023-02-05T05:03:27.967Z,4.25
2023-02-05T05:04:30.921Z,3.75
2023-02-05T05:05:35.206Z,2.85
2023-02-05T05:06:38.235Z,4.00
2023-02-05T05:07:40.216Z,3.38
2023-02-05T05:08:43.612Z,2.17
2023-02-05T05:09:45.569Z,2.75
2023-02-05T05:10:48.761Z,2.30
2023-02-05T05:11:50.854Z,3.25
2023-02-05T05:12:54.171Z,4.32
2023-02-05T05:13:56.120Z,3.25
2023-02-05T05:14:59.061Z,4.50
2023-02-05T05:16:01.233Z,4.43
2023-02-05T05:17:04.629Z,5.30
2023-02-05T05:18:06.659Z,6.82
2023-02-05T05:19:11.246Z,2.10
2023-02-05T05:20:13.182Z,2.95
2023-02-05T05:21:16.400Z,2.40
2023-02-05T05:22:18.298Z,2.80
2023-02-05T05:23:21.239Z,2.40
2023-02-05T05:24:23.146Z,4.50
2023-02-05T05:25:26.076Z,4.55
2023-02-05T05:26:28.249Z,3.70
2023-02-05T05:27:31.240Z,4.97
2023-02-05T05:28:34.772Z,2.58
2023-02-05T05:29:38.055Z,2.83
2023-02-05T05:30:40.861Z,3.58
2023-02-05T05:31:44.725Z,2.75
2023-02-05T05:32:46.650Z,2.85
2023-02-05T05:33:50.013Z,3.58
2023-02-05T05:34:53.312Z,3.47
2023-02-05T05:35:56.234Z,3.05
2023-02-05T05:36:58.147Z,3.05
2023-02-05T05:38:01.738Z,2.97
2023-02-05T05:39:18.830Z,4.32
2023-02-05T05:40:39.108Z,3.08
2023-02-05T05:41:59.805Z,4.03
2023-02-05T05:43:20.192Z,2.88
2023-02-05T05:44:23.181Z,2.40
2023-02-05T05:45:25.315Z,4.65
2023-02-05T05:46:28.260Z,5.00
2023-02-05T05:47:30.190Z,3.83
2023-02-05T05:48:33.198Z,3.22
2023-02-05T05:49:35.258Z,2.65
2023-02-05T05:50:39.558Z,3.30
2023-02-05T05:51:41.524Z,2.78
2023-02-05T05:52:44.441Z,3.40
2023-02-05T05:53:46.819Z,5.32
2023-02-05T05:54:49.727Z,2.80
2023-02-05T05:55:51.628Z,3.50
2023-02-05T05:56:54.584Z,3.20
2023-02-05T05:57:56.492Z,3.08
2023-02-05T05:58:59.368Z,5.60
2023-02-05T06:00:02.591Z,6.47
2023-02-05T06:01:06.862Z,7.43
2023-02-05T06:02:08.857Z,6.93
2023-02-05T06:03:12.338Z,5.75
2023-02-05T06:04:14.260Z,7.07
2023-02-05T06:05:17.298Z,14.35
2023-02-05T06:06:20.591Z,15.68
2023-02-05T06:07:23.505Z,19.65
2023-02-05T06:08:25.768Z,20.02
2023-02-05T06:09:28.740Z,18.83
2023-02-05T06:10:32.505Z,19.33
2023-02-05T06:11:35.483Z,19.75
2023-02-05T06:12:37.435Z,21.00
2023-02-05T06:13:41.802Z,17.65
2023-02-05T06:14:43.747Z,12.85
2023-02-05T06:15:47.410Z,12.45
2023-02-05T06:16:49.649Z,10.02
2023-02-05T06:17:52.522Z,14.25
2023-02-05T06:18:55.778Z,9.27
2023-02-05T06:19:58.667Z,10.95
2023-02-05T06:21:02.212Z,8.15
2023-02-05T06:22:06.517Z,10.68
2023-02-05T06:23:08.465Z,12.88
2023-02-05T06:24:11.470Z,6.55
2023-02-05T06:25:13.636Z,5.32
2023-02-05T06:26:16.527Z,8.77
2023-02-05T06:27:18.514Z,5.72
2023-02-05T06:28:21.470Z,5.75
2023-02-05T06:29:23.607Z,5.57
2023-02-05T06:30:26.513Z,4.18
2023-02-05T06:31:28.540Z,4.07
2023-02-05T06:32:31.590Z,4.28
2023-02-05T06:33:33.526Z,7.38
2023-02-05T06:34:36.463Z,2.80
2023-02-05T06:35:38.386Z,4.45
2023-02-05T06:36:41.265Z,3.85
2023-02-05T06:37:47.924Z,3.10
2023-02-05T06:38:50.913Z,4.40
2023-02-05T06:39:52.869Z,4.53
2023-02-05T06:40:55.841Z,3.92
2023-02-05T06:41:57.776Z,4.25
2023-02-05T06:43:00.669Z,3.90
2023-02-05T06:44:03.885Z,6.38
2023-02-05T06:45:07.815Z,7.32
2023-02-05T06:46:09.821Z,8.85
2023-02-05T06:47:12.760Z,6.20
2023-02-05T06:48:14.699Z,7.65
2023-02-05T06:49:17.731Z,5.00
2023-02-05T06:50:20.036Z,9.30
2023-02-05T06:51:23.000Z,8.23
2023-02-05T06:52:24.936Z,7.25
2023-02-05T06:53:29.216Z,5.03
2023-02-05T06:54:32.008Z,8.73
2023-02-05T06:55:35.198Z,5.78
2023-02-05T06:56:37.479Z,5.10
2023-02-05T06:57:40.478Z,7.00
2023-02-05T06:58:42.401Z,7.32
2023-02-05T06:59:45.312Z,5.35
2023-02-05T07:00:47.264Z,8.77
2023-02-05T07:01:50.277Z,5.43
2023-02-05T07:02:53.129Z,5.30
2023-02-05T07:03:56.181Z,6.43
2023-02-05T07:04:58.151Z,5.63
2023-02-05T07:06:04.944Z,5.03
2023-02-05T07:07:06.901Z,4.45
2023-02-05T07:08:09.927Z,3.40
2023-02-05T07:09:14.228Z,5.05
2023-02-05T07:10:16.300Z,5.38
2023-02-05T07:11:19.709Z,2.80
2023-02-05T07:12:22.101Z,3.90
2023-02-05T07:13:25.063Z,3.60
2023-02-05T07:14:27.040Z,5.35
2023-02-05T07:15:30.039Z,5.90
2023-02-05T07:16:32.050Z,5.40
2023-02-05T07:17:34.993Z,3.08
2023-02-05T07:18:36.965Z,4.25
2023-02-05T07:19:39.956Z,4.57
2023-02-05T07:20:41.964Z,5.38
2023-02-05T07:21:45.358Z,6.15
2023-02-05T07:22:47.299Z,6.70
2023-02-05T07:23:50.390Z,5.38
2023-02-05T07:24:54.755Z,4.90
2023-02-05T07:25:56.697Z,5.15
2023-02-05T07:26:59.682Z,6.75
2023-02-05T07:28:01.716Z,3.88
2023-02-05T07:29:04.698Z,6.72
2023-02-05T07:30:07.736Z,4.03
2023-02-05T07:31:12.735Z,3.85
2023-02-05T07:32:14.830Z,9.40
2023-02-05T07:33:18.069Z,7.57
2023-02-05T07:34:20.099Z,7.85
2023-02-05T07:35:23.026Z,4.80
2023-02-05T07:36:24.968Z,5.78
2023-02-05T07:37:27.919Z,2.85
2023-02-05T07:38:30.188Z,8.88
2023-02-05T07:39:34.246Z,3.53
2023-02-05T07:40:38.445Z,5.53
2023-02-05T07:41:41.385Z,4.05
2023-02-05T07:42:43.315Z,4.88
2023-02-05T07:43:46.421Z,5.40
2023-02-05T07:44:48.365Z,4.75
2023-02-05T07:45:57.398Z,4.85
2023-02-05T07:46:59.850Z,4.50
2023-02-05T07:48:02.803Z,5.10
2023-02-05T07:49:04.857Z,4.15
2023-02-05T07:50:08.386Z,4.30
2023-02-05T07:51:17.051Z,4.50
2023-02-05T07:52:19.984Z,4.15
2023-02-05T07:53:21.965Z,4.78
2023-02-05T07:54:25.617Z,6.57
2023-02-05T07:55:28.637Z,4.43
2023-02-05T07:56:31.935Z,2.58
2023-02-05T07:57:34.911Z,3.55
2023-02-05T07:58:37.065Z,4.00
2023-02-05T07:59:39.982Z,3.38
2023-02-05T08:00:42.206Z,3.08
2023-02-05T08:01:45.116Z,4.35
2023-02-05T08:02:47.215Z,2.75
2023-02-05T08:03:50.153Z,2.88
2023-02-05T08:04:53.136Z,4.60
2023-02-05T08:05:55.425Z,4.25
2023-02-05T08:06:58.314Z,2.45
2023-02-05T08:08:00.374Z,4.28
2023-02-05T08:09:03.389Z,3.55
2023-02-05T08:10:06.011Z,6.70
2023-02-05T08:11:09.259Z,5.53
2023-02-05T08:12:12.573Z,5.53
2023-02-05T08:13:15.605Z,4.45
2023-02-05T08:14:18.486Z,4.45
2023-02-05T08:15:20.498Z,3.30
2023-02-05T08:16:23.459Z,4.18
2023-02-05T08:17:25.442Z,4.40
2023-02-05T08:18:28.374Z,3.28
2023-02-05T08:19:31.331Z,3.83
2023-02-05T08:20:33.319Z,4.65
2023-02-05T08:21:36.271Z,2.67
2023-02-05T08:22:40.673Z,3.00
2023-02-05T08:23:43.702Z,2.72
2023-02-05T08:24:45.590Z,3.58
2023-02-05T08:25:48.698Z,6.13
2023-02-05T08:26:50.586Z,2.97
2023-02-05T08:27:54.844Z,3.63
2023-02-05T08:28:56.755Z,2.58
2023-02-05T08:29:59.656Z,3.03
2023-02-05T08:31:01.623Z,4.15
2023-02-05T08:32:04.996Z,3.40
2023-02-05T08:33:06.948Z,3.13
2023-02-05T08:34:09.867Z,4.03
2023-02-05T08:35:11.832Z,4.30
2023-02-05T08:36:14.832Z,5.38
2023-02-05T08:37:17.861Z,8.43
2023-02-05T08:38:20.779Z,5.30
2023-02-05T08:39:23.726Z,6.38
2023-02-05T08:40:25.774Z,9.45
2023-02-05T08:41:28.823Z,9.00
2023-02-05T08:42:30.786Z,8.07
2023-02-05T08:43:35.023Z,5.95
2023-02-05T08:44:37.024Z,5.78
2023-02-05T08:45:40.201Z,3.85
2023-02-05T08:46:49.658Z,4.18
2023-02-05T08:47:52.354Z,3.42
2023-02-05T08:48:57.386Z,4.20
2023-02-05T08:50:00.376Z,3.55
2023-02-05T08:51:02.584Z,4.15
2023-02-05T08:52:05.701Z,4.55
2023-02-05T08:53:07.603Z,4.97
2023-02-05T08:54:13.196Z,4.13
2023-02-05T08:55:18.143Z,3.53
2023-02-05T08:56:20.415Z,2.88
2023-02-05T08:57:23.400Z,3.75
2023-02-05T08:58:25.545Z,3.42
2023-02-05T08:59:29.849Z,3.65
2023-02-05T09:00:33.288Z,6.57
2023-02-05T09:01:37.251Z,3.28
2023-02-05T09:02:42.204Z,3.00
2023-02-05T09:03:45.941Z,4.97
2023-02-05T09:04:49.429Z,3.70
2023-02-05T09:05:53.150Z,4.07
2023-02-05T09:06:56.025Z,3.83
2023-02-05T09:07:59.228Z,4.80
2023-02-05T09:09:02.156Z,3.35
2023-02-05T09:10:04.481Z,3.97
2023-02-05T09:11:08.230Z,3.65
2023-02-05T09:12:11.655Z,4.43
2023-02-05T09:13:13.554Z,5.70
2023-02-05T09:14:16.778Z,3.35
2023-02-05T09:15:21.193Z,3.22
2023-02-05T09:16:23.653Z,2.53
2023-02-05T09:17:26.689Z,3.83
2023-02-05T09:18:29.657Z,4.50
2023-02-05T09:19:34.237Z,3.00
2023-02-05T09:20:41.846Z,2.88
2023-02-05T09:21:43.853Z,5.60
2023-02-05T09:22:46.746Z,3.35
2023-02-05T09:23:48.644Z,2.60
2023-02-05T09:24:51.762Z,6.32
2023-02-05T09:25:54.708Z,2.88
2023-02-05T09:26:56.902Z,4.10
2023-02-05T09:27:59.848Z,3.38
2023-02-05T09:29:02.895Z,2.85
2023-02-05T09:30:05.303Z,3.65
2023-02-05T09:31:13.329Z,3.65
2023-02-05T09:32:15.307Z,2.50
2023-02-05T09:33:18.847Z,3.42
2023-02-05T09:34:21.955Z,2.72
2023-02-05T09:35:23.900Z,3.00
2023-02-05T09:36:26.785Z,3.50
2023-02-05T09:37:29.957Z,4.18
2023-02-05T09:38:31.893Z,3.53
2023-02-05T09:40:18.520Z,5.55
2023-02-05T09:41:00.855Z,3.00
2023-02-05T09:42:13.427Z,3.78
2023-02-05T09:43:27.222Z,7.80
2023-02-05T09:44:47.378Z,6.13
2023-02-05T09:45:57.525Z,5.35
2023-02-05T09:47:06.890Z,3.00
2023-02-05T09:48:49.400Z,7.97
2023-02-05T09:50:00.244Z,4.55
2023-02-05T09:52:21.015Z,2.75
2023-02-05T09:53:23.133Z,3.38
2023-02-05T09:54:29.418Z,2.97
2023-02-05T09:55:35.656Z,3.25
2023-02-05T09:56:40.082Z,3.10
2023-02-05T09:57:42.985Z,4.65
2023-02-05T09:58:49.536Z,3.75
2023-02-05T09:59:52.534Z,5.72
2023-02-05T10:01:01.432Z,7.97
2023-02-05T10:02:22.939Z,3.88
2023-02-05T10:03:30.971Z,3.38
2023-02-05T10:04:33.992Z,3.40
2023-02-05T10:05:40.930Z,12.57
2023-02-05T10:07:14.084Z,4.30
2023-02-05T10:08:22.905Z,3.25
2023-02-05T10:09:54.261Z,3.75
2023-02-05T10:10:59.169Z,4.47
2023-02-05T10:12:13.598Z,4.57
2023-02-05T10:13:36.282Z,3.47
2023-02-05T10:14:55.102Z,4.07
2023-02-05T10:16:39.561Z,4.85
2023-02-05T10:18:00.921Z,5.63
2023-02-05T10:19:24.140Z,4.95
2023-02-05T10:20:38.878Z,8.65
2023-02-05T10:22:11.064Z,5.03
2023-02-05T10:23:16.869Z,4.88
2023-02-05T10:24:41.387Z,4.72
2023-02-05T10:25:56.772Z,4.10
2023-02-05T10:27:07.378Z,4.25
2023-02-05T10:28:42.261Z,3.40
2023-02-05T10:29:51.506Z,4.43
2023-02-05T10:31:04.301Z,4.63
2023-02-05T10:32:17.555Z,4.03
2023-02-05T10:33:38.510Z,3.60
2023-02-05T10:35:01.607Z,3.35
2023-02-05T10:36:06.882Z,6.28
2023-02-05T10:37:15.435Z,6.65
2023-02-05T10:38:23.640Z,7.10
2023-02-05T10:39:29.799Z,4.40
2023-02-05T10:40:39.265Z,9.07
2023-02-05T10:41:44.809Z,4.70
2023-02-05T10:42:55.037Z,6.07
2023-02-05T10:44:05.723Z,6.00
2023-02-05T10:45:19.105Z,2.30
2023-02-05T10:46:21.258Z,4.10
2023-02-05T10:47:35.016Z,4.60
2023-02-05T10:48:46.460Z,2.40
2023-02-05T10:49:55.267Z,2.90
2023-02-05T10:51:02.003Z,2.70
2023-02-05T10:52:05.355Z,2.42
2023-02-05T10:53:07.320Z,3.88
2023-02-05T10:54:20.192Z,6.50
2023-02-05T10:55:22.203Z,4.80
2023-02-05T10:56:25.192Z,3.90
2023-02-05T10:57:35.172Z,5.07
2023-02-05T10:58:41.700Z,3.17
2023-02-05T10:59:52.841Z,3.10
2023-02-05T11:00:55.316Z,3.28
2023-02-05T11:02:07.305Z,4.93
2023-02-05T11:03:19.184Z,3.65
2023-02-05T11:04:34.630Z,3.33
2023-02-05T11:05:38.708Z,2.63
2023-02-05T11:06:43.842Z,2.90
2023-02-05T11:07:47.408Z,2.22
2023-02-05T11:08:50.336Z,2.97
2023-02-05T11:09:53.408Z,2.85
2023-02-05T11:10:56.427Z,2.20
2023-02-05T11:12:01.646Z,3.30
2023-02-05T11:13:18.986Z,6.05
2023-02-05T11:14:28.281Z,2.85
2023-02-05T11:15:33.733Z,4.10
2023-02-05T11:16:38.943Z,3.50
2023-02-05T11:17:41.931Z,5.45
2023-02-05T11:18:46.438Z,6.47
2023-02-05T11:20:00.044Z,4.75
2023-02-05T11:21:05.570Z,5.70
2023-02-05T11:22:24.920Z,2.33
2023-02-05T11:23:30.976Z,5.03
2023-02-05T11:24:36.095Z,4.00
2023-02-05T11:25:50.808Z,3.20
2023-02-05T11:27:20.354Z,7.38
2023-02-05T11:28:27.684Z,4.28
2023-02-05T11:29:29.586Z,3.33
2023-02-05T11:30:50.909Z,2.50
2023-02-05T11:31:54.282Z,2.33
2023-02-05T11:32:56.468Z,2.75
2023-02-05T11:34:12.643Z,2.65
2023-02-05T11:35:22.340Z,3.72
2023-02-05T11:36:26.536Z,4.55
2023-02-05T11:37:28.809Z,3.20
2023-02-05T11:38:43.220Z,4.50
2023-02-05T11:39:47.017Z,2.25
2023-02-05T11:40:55.053Z,1.98
2023-02-05T11:41:58.691Z,4.13
2023-02-05T11:43:05.398Z,3.20
2023-02-05T11:44:17.755Z,10.88
2023-02-05T11:45:22.576Z,2.90
2023-02-05T11:46:27.616Z,4.85
2023-02-05T11:47:33.918Z,3.10
2023-02-05T11:48:41.566Z,2.83
2023-02-05T11:49:44.661Z,2.70
2023-02-05T11:50:49.183Z,2.90
2023-02-05T11:51:56.415Z,2.80
2023-02-05T11:53:11.981Z,3.35
2023-02-05T11:54:21.825Z,3.20
2023-02-05T11:55:26.791Z,2.40
2023-02-05T11:56:29.976Z,3.90
2023-02-05T11:57:33.803Z,4.30
2023-02-05T11:58:37.707Z,4.28
2023-02-05T11:59:40.352Z,4.75
2023-02-05T12:00:57.197Z,3.60
2023-02-05T12:02:28.379Z,4.00
2023-02-05T12:03:33.122Z,3.33
2023-02-05T12:04:45.036Z,2.85
2023-02-05T12:05:54.683Z,3.17
2023-02-05T12:07:02.539Z,2.85
2023-02-05T12:08:13.554Z,4.13
2023-02-05T12:09:21.202Z,2.78
2023-02-05T12:10:33.466Z,2.22
2023-02-05T12:12:06.553Z,11.20
2023-02-05T12:13:19.775Z,6.80
2023-02-05T12:14:30.131Z,5.85
2023-02-05T12:15:38.275Z,3.30
2023-02-05T12:16:48.306Z,5.05
2023-02-05T12:17:59.602Z,2.38
2023-02-05T12:19:14.702Z,3.97
2023-02-05T12:20:24.528Z,3.67
2023-02-05T12:21:37.348Z,3.53
2023-02-05T12:22:57.720Z,2.15
2023-02-05T12:24:19.204Z,3.22
2023-02-05T12:25:29.825Z,2.90
2023-02-05T12:26:35.212Z,2.65
2023-02-05T12:27:49.531Z,3.13
2023-02-05T12:29:06.957Z,4.25
2023-02-05T12:30:33.050Z,2.38
2023-02-05T12:31:53.029Z,2.67
2023-02-05T12:33:12.551Z,2.80
2023-02-05T12:34:24.674Z,3.22
2023-02-05T12:35:44.626Z,2.30
2023-02-05T12:37:06.671Z,4.43
2023-02-05T12:38:31.512Z,5.32
2023-02-05T12:39:46.097Z,2.67
2023-02-05T12:40:58.549Z,2.85
2023-02-05T12:42:12.600Z,1.90
2023-02-05T12:43:29.585Z,2.38
2023-02-05T12:44:45.836Z,4.05
2023-02-05T12:45:56.784Z,3.65
2023-02-05T12:47:09.866Z,5.10
2023-02-05T12:48:24.922Z,4.15
2023-02-05T12:49:49.482Z,3.60
2023-02-05T12:51:03.477Z,4.28
2023-02-05T12:52:27.488Z,5.22
2023-02-05T12:53:49.580Z,2.72
2023-02-05T12:55:04.269Z,2.97
2023-02-05T12:56:32.255Z,3.28
2023-02-05T12:57:41.904Z,3.08
2023-02-05T12:58:50.606Z,1.90
2023-02-05T12:59:56.799Z,3.13
2023-02-05T13:01:03.290Z,3.50
2023-02-05T13:02:14.545Z,2.70
2023-02-05T13:03:25.962Z,2.00
2023-02-05T13:04:38.637Z,2.45
2023-02-05T13:05:46.441Z,3.35
2023-02-05T13:06:55.367Z,2.40
2023-02-05T13:08:04.864Z,3.05
2023-02-05T13:09:14.459Z,2.75
2023-02-05T13:10:22.060Z,3.92
2023-02-05T13:11:28.911Z,4.53
2023-02-05T13:12:37.963Z,4.88
2023-02-05T13:13:46.966Z,2.65
2023-02-05T13:14:58.571Z,3.20
2023-02-05T13:16:05.833Z,4.80
2023-02-05T13:17:16.623Z,3.00
2023-02-05T13:18:24.772Z,4.65
2023-02-05T13:19:32.005Z,2.90
2023-02-05T13:20:59.522Z,4.05
2023-02-05T13:22:28.131Z,3.10
2023-02-05T13:23:54.251Z,3.90
2023-02-05T13:25:24.699Z,2.47
2023-02-05T13:26:51.055Z,2.92
2023-02-05T13:28:16.342Z,5.35
2023-02-05T13:29:20.848Z,3.55
2023-02-05T13:30:29.282Z,4.32
2023-02-05T13:31:38.434Z,5.70
2023-02-05T13:32:42.576Z,3.63
2023-02-05T13:33:45.915Z,7.20
2023-02-05T13:34:48.145Z,3.47
2023-02-05T13:36:01.806Z,2.70
2023-02-05T13:37:37.929Z,3.45
2023-02-05T13:38:57.170Z,4.72
2023-02-05T13:40:27.611Z,2.53
2023-02-05T13:41:57.095Z,4.22
2023-02-05T13:43:23.208Z,6.50
2023-02-05T13:44:55.039Z,7.47
2023-02-05T13:46:34.178Z,3.42
2023-02-05T13:47:53.851Z,4.80
2023-02-05T13:49:18.821Z,3.00
2023-02-05T13:50:57.815Z,6.30
2023-02-05T13:52:20.051Z,3.75
2023-02-05T13:53:32.469Z,6.43
2023-02-05T13:55:06.027Z,3.85
2023-02-05T13:56:37.267Z,3.75
2023-02-05T13:58:27.101Z,3.95
2023-02-05T13:59:36.327Z,3.97
2023-02-05T14:00:41.346Z,3.33
2023-02-05T14:01:50.460Z,3.33
2023-02-05T14:02:56.340Z,7.38
2023-02-05T14:04:02.276Z,6.63
2023-02-05T14:05:05.950Z,5.63
2023-02-05T14:06:23.880Z,8.20
2023-02-05T14:07:29.023Z,4.60
2023-02-05T14:08:38.319Z,5.28
2023-02-05T14:09:44.531Z,4.95
2023-02-05T14:10:58.041Z,2.95
2023-02-05T14:12:03.960Z,6.20
2023-02-05T14:13:14.037Z,7.75
2023-02-05T14:14:24.871Z,6.43
2023-02-05T14:15:39.188Z,5.20
2023-02-05T14:16:42.179Z,4.93
2023-02-05T14:17:54.441Z,6.60
2023-02-05T14:19:13.167Z,5.85
2023-02-05T14:20:34.940Z,6.72
2023-02-05T14:21:58.111Z,7.70
2023-02-05T14:23:02.717Z,7.85
2023-02-05T14:24:27.714Z,6.60
2023-02-05T14:26:04.082Z,12.18
2023-02-05T14:27:43.045Z,12.60
2023-02-05T14:28:55.191Z,5.28
2023-02-05T14:29:59.553Z,6.45
2023-02-05T14:31:04.281Z,7.47
2023-02-05T14:32:08.912Z,5.93
2023-02-05T14:33:34.014Z,3.78
2023-02-05T14:35:01.283Z,4.80
2023-02-05T14:36:46.885Z,3.20
2023-02-05T14:37:49.839Z,9.48
2023-02-05T14:38:54.910Z,2.55
2023-02-05T14:39:59.736Z,4.53
2023-02-05T14:41:04.548Z,3.67
2023-02-05T14:42:09.222Z,3.17
2023-02-05T14:43:17.723Z,2.83
2023-02-05T14:44:24.924Z,3.10
2023-02-05T14:45:28.849Z,6.10
2023-02-05T14:46:33.289Z,19.60
2023-02-05T14:47:36.986Z,9.57
2023-02-05T14:48:43.130Z,6.80
2023-02-05T14:49:48.274Z,31.10
2023-02-05T14:51:02.355Z,48.33
2023-02-05T14:52:07.905Z,19.85
2023-02-05T14:53:26.707Z,32.72